sensor_id;sensor_type;location;lat;lon;timestamp;pressure;altitude;pressure_sealevel;temperature;humidity
5651;BME280;40241;52.684;9.758;2024-01-27T00:01:14;102745.50;;;5.45;60.49
5651;BME280;40241;52.684;9.758;2024-01-27T00:03:39;102750.97;;;5.45;60.64
5651;BME280;40241;52.684;9.758;2024-01-27T00:06:05;102755.63;;;5.48;60.63
5651;BME280;40241;52.684;9.758;2024-01-27T00:08:30;102767.38;;;5.49;60.62
5651;BME280;40241;52.684;9.758;2024-01-27T00:10:56;102763.84;;;5.48;60.56
5651;BME280;40241;52.684;9.758;2024-01-27T00:13:21;102763.41;;;5.50;60.46
5651;BME280;40241;52.684;9.758;2024-01-27T00:15:46;102776.75;;;5.51;60.47
5651;BME280;40241;52.684;9.758;2024-01-27T00:18:12;102769.78;;;5.47;60.57
5651;BME280;40241;52.684;9.758;2024-01-27T00:20:37;102770.19;;;5.45;60.66
5651;BME280;40241;52.684;9.758;2024-01-27T00:23:03;102767.03;;;5.47;60.69
5651;BME280;40241;52.684;9.758;2024-01-27T00:25:29;102771.41;;;5.44;60.62
5651;BME280;40241;52.684;9.758;2024-01-27T00:27:54;102775.34;;;5.43;60.46
5651;BME280;40241;52.684;9.758;2024-01-27T00:30:19;102769.09;;;5.43;60.70
5651;BME280;40241;52.684;9.758;2024-01-27T00:32:45;102767.97;;;5.40;60.70
5651;BME280;40241;52.684;9.758;2024-01-27T00:35:10;102772.34;;;5.38;60.55
5651;BME280;40241;52.684;9.758;2024-01-27T00:37:39;102772.78;;;5.36;60.98
5651;BME280;40241;52.684;9.758;2024-01-27T00:40:08;102769.16;;;5.39;60.80
5651;BME280;40241;52.684;9.758;2024-01-27T00:42:33;102777.00;;;5.41;60.80
5651;BME280;40241;52.684;9.758;2024-01-27T00:44:58;102783.25;;;5.41;60.78
5651;BME280;40241;52.684;9.758;2024-01-27T00:47:24;102780.50;;;5.41;60.88
5651;BME280;40241;52.684;9.758;2024-01-27T00:49:49;102782.06;;;5.42;61.08
5651;BME280;40241;52.684;9.758;2024-01-27T00:52:14;102786.31;;;5.43;60.78
5651;BME280;40241;52.684;9.758;2024-01-27T00:54:40;102783.25;;;5.41;60.77
5651;BME280;40241;52.684;9.758;2024-01-27T00:57:05;102788.72;;;5.41;61.03
5651;BME280;40241;52.684;9.758;2024-01-27T00:59:30;102787.88;;;5.44;60.99
5651;BME280;40241;52.684;9.758;2024-01-27T01:01:56;102788.66;;;5.45;61.05
5651;BME280;40241;52.684;9.758;2024-01-27T01:04:21;102794.84;;;5.49;61.11
5651;BME280;40241;52.684;9.758;2024-01-27T01:06:47;102795.63;;;5.49;61.20
5651;BME280;40241;52.684;9.758;2024-01-27T01:09:12;102790.47;;;5.51;61.08
5651;BME280;40241;52.684;9.758;2024-01-27T01:11:37;102801.00;;;5.53;61.20
5651;BME280;40241;52.684;9.758;2024-01-27T01:14:02;102806.41;;;5.56;61.17
5651;BME280;40241;52.684;9.758;2024-01-27T01:16:28;102811.91;;;5.56;60.83
5651;BME280;40241;52.684;9.758;2024-01-27T01:18:53;102823.75;;;5.53;61.08
5651;BME280;40241;52.684;9.758;2024-01-27T01:21:18;102811.56;;;5.54;61.05
5651;BME280;40241;52.684;9.758;2024-01-27T01:23:44;102815.59;;;5.50;61.02
5651;BME280;40241;52.684;9.758;2024-01-27T01:26:09;102812.50;;;5.48;61.11
5651;BME280;40241;52.684;9.758;2024-01-27T01:28:34;102813.38;;;5.45;61.17
5651;BME280;40241;52.684;9.758;2024-01-27T01:31:00;102821.25;;;5.43;61.18
5651;BME280;40241;52.684;9.758;2024-01-27T01:33:25;102826.75;;;5.43;61.11
5651;BME280;40241;52.684;9.758;2024-01-27T01:35:50;102833.44;;;5.42;61.18
5651;BME280;40241;52.684;9.758;2024-01-27T01:38:15;102834.22;;;5.42;61.19
5651;BME280;40241;52.684;9.758;2024-01-27T01:40:41;102835.06;;;5.39;61.02
5651;BME280;40241;52.684;9.758;2024-01-27T01:43:09;102837.81;;;5.39;60.98
5651;BME280;40241;52.684;9.758;2024-01-27T01:45:36;102834.81;;;5.34;61.09
5651;BME280;40241;52.684;9.758;2024-01-27T01:48:01;102855.72;;;5.28;61.08
5651;BME280;40241;52.684;9.758;2024-01-27T01:50:26;102841.56;;;5.29;61.03
5651;BME280;40241;52.684;9.758;2024-01-27T01:52:53;102847.91;;;5.26;61.28
5651;BME280;40241;52.684;9.758;2024-01-27T01:55:18;102851.91;;;5.22;60.96
5651;BME280;40241;52.684;9.758;2024-01-27T01:57:44;102847.28;;;5.19;61.35
5651;BME280;40241;52.684;9.758;2024-01-27T02:00:10;102843.88;;;5.15;61.30
5651;BME280;40241;52.684;9.758;2024-01-27T02:02:36;102841.97;;;5.12;61.13
5651;BME280;40241;52.684;9.758;2024-01-27T02:05:01;102846.31;;;5.09;61.17
5651;BME280;40241;52.684;9.758;2024-01-27T02:07:27;102853.06;;;5.05;61.35
5651;BME280;40241;52.684;9.758;2024-01-27T02:09:52;102849.22;;;5.02;61.22
5651;BME280;40241;52.684;9.758;2024-01-27T02:12:18;102851.94;;;5.02;61.48
5651;BME280;40241;52.684;9.758;2024-01-27T02:14:43;102851.59;;;5.00;61.32
5651;BME280;40241;52.684;9.758;2024-01-27T02:17:08;102856.41;;;4.96;61.28
5651;BME280;40241;52.684;9.758;2024-01-27T02:19:34;102858.44;;;4.92;61.49
5651;BME280;40241;52.684;9.758;2024-01-27T02:21:59;102859.97;;;4.93;61.41
5651;BME280;40241;52.684;9.758;2024-01-27T02:24:24;102863.50;;;4.94;61.50
5651;BME280;40241;52.684;9.758;2024-01-27T02:26:50;102852.53;;;4.94;61.24
5651;BME280;40241;52.684;9.758;2024-01-27T02:29:15;102847.56;;;4.89;61.51
5651;BME280;40241;52.684;9.758;2024-01-27T02:31:41;102853.88;;;4.86;61.37
5651;BME280;40241;52.684;9.758;2024-01-27T02:34:06;102845.78;;;4.78;61.44
5651;BME280;40241;52.684;9.758;2024-01-27T02:36:31;102851.38;;;4.71;61.50
5651;BME280;40241;52.684;9.758;2024-01-27T02:38:57;102861.66;;;4.67;61.50
5651;BME280;40241;52.684;9.758;2024-01-27T02:41:22;102857.84;;;4.61;61.42
5651;BME280;40241;52.684;9.758;2024-01-27T02:43:47;102863.41;;;4.58;61.79
5651;BME280;40241;52.684;9.758;2024-01-27T02:46:13;102857.97;;;4.54;61.30
5651;BME280;40241;52.684;9.758;2024-01-27T02:48:44;102858.13;;;4.47;61.69
5651;BME280;40241;52.684;9.758;2024-01-27T02:51:09;102862.84;;;4.47;61.44
5651;BME280;40241;52.684;9.758;2024-01-27T02:53:35;102870.72;;;4.45;61.51
5651;BME280;40241;52.684;9.758;2024-01-27T02:56:00;102860.22;;;4.40;61.65
5651;BME280;40241;52.684;9.758;2024-01-27T02:58:26;102860.66;;;4.38;61.63
5651;BME280;40241;52.684;9.758;2024-01-27T03:00:51;102868.94;;;4.35;61.78
5651;BME280;40241;52.684;9.758;2024-01-27T03:03:16;102867.03;;;4.32;61.60
5651;BME280;40241;52.684;9.758;2024-01-27T03:05:42;102869.44;;;4.30;61.67
5651;BME280;40241;52.684;9.758;2024-01-27T03:08:07;102874.94;;;4.26;61.55
5651;BME280;40241;52.684;9.758;2024-01-27T03:10:33;102869.13;;;4.24;61.70
5651;BME280;40241;52.684;9.758;2024-01-27T03:12:58;102877.34;;;4.24;61.67
5651;BME280;40241;52.684;9.758;2024-01-27T03:15:23;102884.06;;;4.20;61.71
5651;BME280;40241;52.684;9.758;2024-01-27T03:17:49;102879.81;;;4.19;61.61
5651;BME280;40241;52.684;9.758;2024-01-27T03:20:14;102879.06;;;4.15;61.70
5651;BME280;40241;52.684;9.758;2024-01-27T03:22:39;102890.88;;;4.12;61.61
5651;BME280;40241;52.684;9.758;2024-01-27T03:25:09;102894.84;;;4.07;61.64
5651;BME280;40241;52.684;9.758;2024-01-27T03:27:35;102898.41;;;4.04;61.64
5651;BME280;40241;52.684;9.758;2024-01-27T03:30:01;102908.25;;;4.01;61.95
5651;BME280;40241;52.684;9.758;2024-01-27T03:32:27;102915.34;;;3.99;62.05
5651;BME280;40241;52.684;9.758;2024-01-27T03:34:53;102923.59;;;3.95;62.05
5651;BME280;40241;52.684;9.758;2024-01-27T03:37:18;102923.19;;;3.97;62.01
5651;BME280;40241;52.684;9.758;2024-01-27T03:39:43;102925.91;;;3.97;61.92
5651;BME280;40241;52.684;9.758;2024-01-27T03:42:08;102931.03;;;3.95;62.08
5651;BME280;40241;52.684;9.758;2024-01-27T03:44:34;102925.91;;;3.97;62.07
5651;BME280;40241;52.684;9.758;2024-01-27T03:46:59;102931.81;;;3.95;62.05
5651;BME280;40241;52.684;9.758;2024-01-27T03:49:25;102923.25;;;3.93;61.84
5651;BME280;40241;52.684;9.758;2024-01-27T03:51:50;102919.38;;;3.91;62.19
5651;BME280;40241;52.684;9.758;2024-01-27T03:54:15;102923.31;;;3.90;61.98
5651;BME280;40241;52.684;9.758;2024-01-27T03:56:41;102912.00;;;3.88;62.16
5651;BME280;40241;52.684;9.758;2024-01-27T03:59:07;102917.88;;;3.86;61.86
5651;BME280;40241;52.684;9.758;2024-01-27T04:01:34;102925.72;;;3.84;62.17
5651;BME280;40241;52.684;9.758;2024-01-27T04:04:00;102930.84;;;3.82;61.97
5651;BME280;40241;52.684;9.758;2024-01-27T04:06:25;102924.19;;;3.83;62.07
5651;BME280;40241;52.684;9.758;2024-01-27T04:08:50;102933.59;;;3.82;62.13
5651;BME280;40241;52.684;9.758;2024-01-27T04:11:20;102929.31;;;3.81;61.90
5651;BME280;40241;52.684;9.758;2024-01-27T04:13:46;102935.97;;;3.80;61.86
5651;BME280;40241;52.684;9.758;2024-01-27T04:16:11;102934.47;;;3.76;61.88
5651;BME280;40241;52.684;9.758;2024-01-27T04:18:39;102934.53;;;3.72;62.19
5651;BME280;40241;52.684;9.758;2024-01-27T04:21:04;102930.59;;;3.73;61.96
5651;BME280;40241;52.684;9.758;2024-01-27T04:23:30;102935.34;;;3.69;62.20
5651;BME280;40241;52.684;9.758;2024-01-27T04:25:55;102940.81;;;3.69;61.93
5651;BME280;40241;52.684;9.758;2024-01-27T04:28:20;102935.75;;;3.68;61.92
5651;BME280;40241;52.684;9.758;2024-01-27T04:30:46;102945.56;;;3.65;61.97
5651;BME280;40241;52.684;9.758;2024-01-27T04:33:12;102941.69;;;3.63;61.97
5651;BME280;40241;52.684;9.758;2024-01-27T04:35:37;102934.31;;;3.60;62.05
5651;BME280;40241;52.684;9.758;2024-01-27T04:38:03;102937.44;;;3.58;62.33
5651;BME280;40241;52.684;9.758;2024-01-27T04:40:29;102942.91;;;3.58;62.42
5651;BME280;40241;52.684;9.758;2024-01-27T04:42:54;102944.13;;;3.57;62.60
5651;BME280;40241;52.684;9.758;2024-01-27T04:45:19;102946.88;;;3.57;62.41
5651;BME280;40241;52.684;9.758;2024-01-27T04:47:45;102945.72;;;3.55;62.16
5651;BME280;40241;52.684;9.758;2024-01-27T04:50:10;102949.63;;;3.54;62.21
5651;BME280;40241;52.684;9.758;2024-01-27T04:52:36;102956.69;;;3.51;62.19
5651;BME280;40241;52.684;9.758;2024-01-27T04:55:01;102959.84;;;3.50;62.61
5651;BME280;40241;52.684;9.758;2024-01-27T04:57:28;102958.69;;;3.51;62.44
5651;BME280;40241;52.684;9.758;2024-01-27T04:59:54;102970.03;;;3.49;62.46
5651;BME280;40241;52.684;9.758;2024-01-27T05:02:19;102979.44;;;3.48;62.10
5651;BME280;40241;52.684;9.758;2024-01-27T05:04:44;102977.88;;;3.47;62.48
5651;BME280;40241;52.684;9.758;2024-01-27T05:07:09;102971.63;;;3.47;62.62
5651;BME280;40241;52.684;9.758;2024-01-27T05:09:35;102971.25;;;3.45;62.40
5651;BME280;40241;52.684;9.758;2024-01-27T05:12:01;102976.41;;;3.39;62.36
5651;BME280;40241;52.684;9.758;2024-01-27T05:14:26;102972.50;;;3.40;62.59
5651;BME280;40241;52.684;9.758;2024-01-27T05:16:52;102975.25;;;3.40;62.50
5651;BME280;40241;52.684;9.758;2024-01-27T05:19:17;102989.72;;;3.37;62.33
5651;BME280;40241;52.684;9.758;2024-01-27T05:21:43;102976.47;;;3.36;62.40
5651;BME280;40241;52.684;9.758;2024-01-27T05:24:09;102967.91;;;3.34;62.58
5651;BME280;40241;52.684;9.758;2024-01-27T05:26:34;102982.31;;;3.34;62.50
5651;BME280;40241;52.684;9.758;2024-01-27T05:28:59;102974.53;;;3.32;62.40
5651;BME280;40241;52.684;9.758;2024-01-27T05:31:25;102979.22;;;3.32;62.35
5651;BME280;40241;52.684;9.758;2024-01-27T05:33:51;102990.59;;;3.30;62.19
5651;BME280;40241;52.684;9.758;2024-01-27T05:36:16;102991.75;;;3.29;62.79
5651;BME280;40241;52.684;9.758;2024-01-27T05:38:41;102992.97;;;3.28;62.31
5651;BME280;40241;52.684;9.758;2024-01-27T05:41:07;102991.41;;;3.27;62.43
5651;BME280;40241;52.684;9.758;2024-01-27T05:43:32;102987.50;;;3.25;62.11
5651;BME280;40241;52.684;9.758;2024-01-27T05:45:57;102987.97;;;3.20;62.37
5651;BME280;40241;52.684;9.758;2024-01-27T05:48:23;102991.53;;;3.17;62.13
5651;BME280;40241;52.684;9.758;2024-01-27T05:50:56;103005.63;;;3.15;62.31
5651;BME280;40241;52.684;9.758;2024-01-27T05:53:21;102988.06;;;3.13;62.35
5651;BME280;40241;52.684;9.758;2024-01-27T05:55:47;102993.16;;;3.11;62.40
5651;BME280;40241;52.684;9.758;2024-01-27T05:58:12;102997.06;;;3.10;62.08
5651;BME280;40241;52.684;9.758;2024-01-27T06:00:37;102993.22;;;3.07;62.27
5651;BME280;40241;52.684;9.758;2024-01-27T06:03:03;103009.63;;;3.04;62.68
5651;BME280;40241;52.684;9.758;2024-01-27T06:05:29;103009.28;;;3.02;62.52
5651;BME280;40241;52.684;9.758;2024-01-27T06:07:54;103006.97;;;3.00;62.52
5651;BME280;40241;52.684;9.758;2024-01-27T06:10:19;103007.34;;;2.99;62.50
5651;BME280;40241;52.684;9.758;2024-01-27T06:12:45;103012.44;;;2.97;62.42
5651;BME280;40241;52.684;9.758;2024-01-27T06:15:10;103003.50;;;2.93;62.27
5651;BME280;40241;52.684;9.758;2024-01-27T06:17:36;102999.22;;;2.92;62.85
5651;BME280;40241;52.684;9.758;2024-01-27T06:20:01;103015.63;;;2.92;62.64
5651;BME280;40241;52.684;9.758;2024-01-27T06:22:26;103015.28;;;2.90;62.54
5651;BME280;40241;52.684;9.758;2024-01-27T06:24:52;103026.97;;;2.90;62.58
5651;BME280;40241;52.684;9.758;2024-01-27T06:27:17;103030.09;;;2.89;62.46
5651;BME280;40241;52.684;9.758;2024-01-27T06:29:42;103021.94;;;2.85;62.58
5651;BME280;40241;52.684;9.758;2024-01-27T06:32:09;103027.00;;;2.87;62.52
5651;BME280;40241;52.684;9.758;2024-01-27T06:34:34;103026.25;;;2.83;62.51
5651;BME280;40241;52.684;9.758;2024-01-27T06:37:00;103039.56;;;2.81;62.33
5651;BME280;40241;52.684;9.758;2024-01-27T06:39:25;103043.88;;;2.78;62.49
5651;BME280;40241;52.684;9.758;2024-01-27T06:41:51;103041.56;;;2.77;62.59
5651;BME280;40241;52.684;9.758;2024-01-27T06:44:16;103048.97;;;2.76;62.64
5651;BME280;40241;52.684;9.758;2024-01-27T06:46:41;103063.03;;;2.75;62.76
5651;BME280;40241;52.684;9.758;2024-01-27T06:49:07;103057.56;;;2.75;62.93
5651;BME280;40241;52.684;9.758;2024-01-27T06:51:32;103063.44;;;2.73;62.41
5651;BME280;40241;52.684;9.758;2024-01-27T06:53:57;103068.16;;;2.69;62.72
5651;BME280;40241;52.684;9.758;2024-01-27T06:56:23;103067.78;;;2.67;62.50
5651;BME280;40241;52.684;9.758;2024-01-27T06:58:48;103074.06;;;2.64;62.47
5651;BME280;40241;52.684;9.758;2024-01-27T07:01:13;103072.53;;;2.60;62.60
5651;BME280;40241;52.684;9.758;2024-01-27T07:03:39;103078.03;;;2.56;62.50
5651;BME280;40241;52.684;9.758;2024-01-27T07:06:05;103083.91;;;2.51;62.75
5651;BME280;40241;52.684;9.758;2024-01-27T07:08:30;103082.75;;;2.48;62.46
5651;BME280;40241;52.684;9.758;2024-01-27T07:10:57;103090.59;;;2.43;62.27
5651;BME280;40241;52.684;9.758;2024-01-27T07:13:23;103081.25;;;2.44;62.66
5651;BME280;40241;52.684;9.758;2024-01-27T07:15:48;103090.63;;;2.39;62.42
5651;BME280;40241;52.684;9.758;2024-01-27T07:18:13;103085.19;;;2.36;62.63
5651;BME280;40241;52.684;9.758;2024-01-27T07:20:40;103085.97;;;2.36;62.27
5651;BME280;40241;52.684;9.758;2024-01-27T07:23:05;103096.88;;;2.36;62.78
5651;BME280;40241;52.684;9.758;2024-01-27T07:25:31;103091.44;;;2.33;62.62
5651;BME280;40241;52.684;9.758;2024-01-27T07:27:56;103103.94;;;2.30;62.24
5651;BME280;40241;52.684;9.758;2024-01-27T07:30:21;103102.38;;;2.29;62.50
5651;BME280;40241;52.684;9.758;2024-01-27T07:32:47;103102.78;;;2.28;62.45
5651;BME280;40241;52.684;9.758;2024-01-27T07:35:12;103105.13;;;2.26;62.19
5651;BME280;40241;52.684;9.758;2024-01-27T07:37:37;103113.31;;;2.26;62.34
5651;BME280;40241;52.684;9.758;2024-01-27T07:40:04;103118.78;;;2.22;62.27
5651;BME280;40241;52.684;9.758;2024-01-27T07:42:30;103108.25;;;2.24;62.48
5651;BME280;40241;52.684;9.758;2024-01-27T07:44:56;103110.59;;;2.26;62.65
5651;BME280;40241;52.684;9.758;2024-01-27T07:47:21;103107.06;;;2.25;62.19
5651;BME280;40241;52.684;9.758;2024-01-27T07:49:46;103110.59;;;2.26;62.65
5651;BME280;40241;52.684;9.758;2024-01-27T07:52:14;103110.19;;;2.27;62.21
5651;BME280;40241;52.684;9.758;2024-01-27T07:54:39;103117.59;;;2.30;62.60
5651;BME280;40241;52.684;9.758;2024-01-27T07:57:05;103115.22;;;2.32;62.61
5651;BME280;40241;52.684;9.758;2024-01-27T07:59:31;103115.22;;;2.36;62.91
5651;BME280;40241;52.684;9.758;2024-01-27T08:01:56;103117.56;;;2.41;62.65
5651;BME280;40241;52.684;9.758;2024-01-27T08:04:21;103110.50;;;2.43;62.97
5651;BME280;40241;52.684;9.758;2024-01-27T08:06:48;103106.59;;;2.48;62.77
5651;BME280;40241;52.684;9.758;2024-01-27T08:09:15;103108.13;;;2.52;63.08
5651;BME280;40241;52.684;9.758;2024-01-27T08:11:40;103112.75;;;2.55;62.83
5651;BME280;40241;52.684;9.758;2024-01-27T08:14:05;103112.34;;;2.61;63.14
5651;BME280;40241;52.684;9.758;2024-01-27T08:16:31;103117.03;;;2.64;62.89
5651;BME280;40241;52.684;9.758;2024-01-27T08:18:56;103130.25;;;2.69;63.18
5651;BME280;40241;52.684;9.758;2024-01-27T08:21:21;103128.25;;;2.73;63.21
5651;BME280;40241;52.684;9.758;2024-01-27T08:23:47;103122.00;;;2.76;62.97
5651;BME280;40241;52.684;9.758;2024-01-27T08:26:12;103125.47;;;2.80;62.82
5651;BME280;40241;52.684;9.758;2024-01-27T08:28:37;103130.53;;;2.85;63.16
5651;BME280;40241;52.684;9.758;2024-01-27T08:31:03;103129.34;;;2.86;62.75
5651;BME280;40241;52.684;9.758;2024-01-27T08:33:28;103132.84;;;2.90;62.98
5651;BME280;40241;52.684;9.758;2024-01-27T08:35:54;103137.09;;;2.94;63.53
5651;BME280;40241;52.684;9.758;2024-01-27T08:38:19;103135.13;;;2.98;63.13
5651;BME280;40241;52.684;9.758;2024-01-27T08:40:44;103142.47;;;3.05;63.40
5651;BME280;40241;52.684;9.758;2024-01-27T08:43:10;103132.69;;;3.07;62.95
5651;BME280;40241;52.684;9.758;2024-01-27T08:45:37;103147.88;;;3.12;63.26
5651;BME280;40241;52.684;9.758;2024-01-27T08:48:02;103150.19;;;3.17;63.39
5651;BME280;40241;52.684;9.758;2024-01-27T08:50:28;103156.03;;;3.19;63.14
5651;BME280;40241;52.684;9.758;2024-01-27T08:52:53;103161.06;;;3.24;63.53
5651;BME280;40241;52.684;9.758;2024-01-27T08:55:19;103164.91;;;3.30;63.30
5651;BME280;40241;52.684;9.758;2024-01-27T08:57:47;103149.59;;;3.36;63.18
5651;BME280;40241;52.684;9.758;2024-01-27T09:00:13;103158.16;;;3.42;63.06
5651;BME280;40241;52.684;9.758;2024-01-27T09:02:38;103156.53;;;3.48;63.25
5651;BME280;40241;52.684;9.758;2024-01-27T09:05:04;103154.91;;;3.54;63.24
5651;BME280;40241;52.684;9.758;2024-01-27T09:07:30;103165.41;;;3.59;63.13
5651;BME280;40241;52.684;9.758;2024-01-27T09:09:56;103162.63;;;3.62;62.86
5651;BME280;40241;52.684;9.758;2024-01-27T09:12:21;103156.78;;;3.64;63.19
5651;BME280;40241;52.684;9.758;2024-01-27T09:14:46;103162.16;;;3.71;63.02
5651;BME280;40241;52.684;9.758;2024-01-27T09:17:12;103163.28;;;3.77;62.90
5651;BME280;40241;52.684;9.758;2024-01-27T09:19:37;103156.59;;;3.81;63.20
5651;BME280;40241;52.684;9.758;2024-01-27T09:22:03;103167.50;;;3.85;62.95
5651;BME280;40241;52.684;9.758;2024-01-27T09:24:28;103162.75;;;3.89;62.97
5651;BME280;40241;52.684;9.758;2024-01-27T09:26:53;103162.31;;;3.94;63.08
5651;BME280;40241;52.684;9.758;2024-01-27T09:29:19;103163.41;;;4.00;62.97
5651;BME280;40241;52.684;9.758;2024-01-27T09:31:45;103173.91;;;4.05;63.03
5651;BME280;40241;52.684;9.758;2024-01-27T09:34:10;103166.00;;;4.11;63.12
5651;BME280;40241;52.684;9.758;2024-01-27T09:36:36;103206.28;;;4.14;62.89
5651;BME280;40241;52.684;9.758;2024-01-27T09:39:01;103181.19;;;4.19;63.10
5651;BME280;40241;52.684;9.758;2024-01-27T09:41:30;103184.25;;;4.24;62.79
5651;BME280;40241;52.684;9.758;2024-01-27T09:44:01;103192.41;;;4.28;63.12
5651;BME280;40241;52.684;9.758;2024-01-27T09:46:29;103191.16;;;4.32;62.88
5651;BME280;40241;52.684;9.758;2024-01-27T09:48:54;103192.69;;;4.37;62.91
5651;BME280;40241;52.684;9.758;2024-01-27T09:51:20;103198.06;;;4.44;62.78
5651;BME280;40241;52.684;9.758;2024-01-27T09:53:45;103190.94;;;4.50;62.93
5651;BME280;40241;52.684;9.758;2024-01-27T09:56:12;103192.41;;;4.58;62.68
5651;BME280;40241;52.684;9.758;2024-01-27T09:58:43;103195.03;;;4.65;62.81
5651;BME280;40241;52.684;9.758;2024-01-27T10:01:09;103200.06;;;4.70;62.69
5651;BME280;40241;52.684;9.758;2024-01-27T10:03:35;103208.66;;;4.75;62.49
5651;BME280;40241;52.684;9.758;2024-01-27T10:06:04;103214.44;;;4.81;62.63
5651;BME280;40241;52.684;9.758;2024-01-27T10:08:33;103203.41;;;4.85;62.66
5651;BME280;40241;52.684;9.758;2024-01-27T10:10:58;103206.56;;;4.83;62.62
5651;BME280;40241;52.684;9.758;2024-01-27T10:13:24;103211.59;;;4.88;62.56
5651;BME280;40241;52.684;9.758;2024-01-27T10:16:06;103202.88;;;4.93;62.00
5651;BME280;40241;52.684;9.758;2024-01-27T10:18:32;103213.47;;;4.95;62.56
5651;BME280;40241;52.684;9.758;2024-01-27T10:20:59;103209.81;;;5.01;62.68
5651;BME280;40241;52.684;9.758;2024-01-27T10:23:24;103210.91;;;5.07;62.62
5651;BME280;40241;52.684;9.758;2024-01-27T10:25:51;103210.09;;;5.10;62.38
5651;BME280;40241;52.684;9.758;2024-01-27T10:28:16;103204.81;;;5.19;62.37
5651;BME280;40241;52.684;9.758;2024-01-27T10:30:43;103206.03;;;5.18;62.31
5651;BME280;40241;52.684;9.758;2024-01-27T10:33:10;103198.50;;;5.22;62.24
5651;BME280;40241;52.684;9.758;2024-01-27T10:35:36;103201.59;;;5.24;62.16
5651;BME280;40241;52.684;9.758;2024-01-27T10:38:01;103197.25;;;5.27;62.39
5651;BME280;40241;52.684;9.758;2024-01-27T10:40:27;103202.69;;;5.30;62.15
5651;BME280;40241;52.684;9.758;2024-01-27T10:43:01;103209.25;;;5.36;61.92
5651;BME280;40241;52.684;9.758;2024-01-27T10:45:31;103201.41;;;5.35;62.05
5651;BME280;40241;52.684;9.758;2024-01-27T10:47:59;103195.19;;;5.34;62.25
5651;BME280;40241;52.684;9.758;2024-01-27T10:50:25;103198.63;;;5.38;62.06
5651;BME280;40241;52.684;9.758;2024-01-27T10:52:53;103191.13;;;5.42;62.30
5651;BME280;40241;52.684;9.758;2024-01-27T10:55:21;103200.06;;;5.46;62.04
5651;BME280;40241;52.684;9.758;2024-01-27T10:57:47;103206.25;;;5.50;62.03
5651;BME280;40241;52.684;9.758;2024-01-27T11:00:14;103195.63;;;5.52;62.04
5651;BME280;40241;52.684;9.758;2024-01-27T11:02:40;103192.06;;;5.55;62.00
5651;BME280;40241;52.684;9.758;2024-01-27T11:05:09;103195.88;;;5.62;61.81
5651;BME280;40241;52.684;9.758;2024-01-27T11:07:36;103189.19;;;5.63;61.84
5651;BME280;40241;52.684;9.758;2024-01-27T11:10:02;103185.19;;;5.67;61.81
5651;BME280;40241;52.684;9.758;2024-01-27T11:12:28;103186.25;;;5.73;61.82
5651;BME280;40241;52.684;9.758;2024-01-27T11:14:54;103185.34;;;5.80;61.83
5651;BME280;40241;52.684;9.758;2024-01-27T11:17:19;103191.09;;;5.85;61.85
5651;BME280;40241;52.684;9.758;2024-01-27T11:19:45;103200.81;;;5.90;61.66
5651;BME280;40241;52.684;9.758;2024-01-27T11:22:28;103188.22;;;5.92;60.86
5651;BME280;40241;52.684;9.758;2024-01-27T11:27:34;103194.72;;;6.02;61.67
5651;BME280;40241;52.684;9.758;2024-01-27T11:30:00;103196.47;;;6.12;61.64
5651;BME280;40241;52.684;9.758;2024-01-27T11:32:26;103198.63;;;6.20;61.49
5651;BME280;40241;52.684;9.758;2024-01-27T11:34:52;103208.28;;;6.28;61.38
5651;BME280;40241;52.684;9.758;2024-01-27T11:37:17;103198.28;;;6.38;61.31
5651;BME280;40241;52.684;9.758;2024-01-27T11:39:49;103205.50;;;6.48;61.25
5651;BME280;40241;52.684;9.758;2024-01-27T11:42:14;103209.56;;;6.63;61.16
5651;BME280;40241;52.684;9.758;2024-01-27T11:44:41;103207.69;;;6.76;61.01
5651;BME280;40241;52.684;9.758;2024-01-27T11:47:15;103207.50;;;6.83;60.57
5651;BME280;40241;52.684;9.758;2024-01-27T11:49:42;103197.91;;;6.91;60.69
5651;BME280;40241;52.684;9.758;2024-01-27T11:52:07;103201.94;;;7.03;60.64
5651;BME280;40241;52.684;9.758;2024-01-27T11:54:32;103212.88;;;7.07;60.54
5651;BME280;40241;52.684;9.758;2024-01-27T11:56:58;103217.09;;;7.11;60.34
5651;BME280;40241;52.684;9.758;2024-01-27T11:59:23;103217.06;;;7.27;60.46
5651;BME280;40241;52.684;9.758;2024-01-27T12:01:49;103225.16;;;7.50;60.39
5651;BME280;40241;52.684;9.758;2024-01-27T12:04:14;103231.22;;;7.74;60.36
5651;BME280;40241;52.684;9.758;2024-01-27T12:06:41;103222.72;;;7.97;59.84
5651;BME280;40241;52.684;9.758;2024-01-27T12:09:08;103222.50;;;8.20;59.42
5651;BME280;40241;52.684;9.758;2024-01-27T12:11:38;103213.28;;;8.39;59.15
5651;BME280;40241;52.684;9.758;2024-01-27T12:14:05;103215.50;;;8.57;58.92
5651;BME280;40241;52.684;9.758;2024-01-27T12:16:31;103215.75;;;8.75;58.70
5651;BME280;40241;52.684;9.758;2024-01-27T12:18:56;103207.53;;;8.84;58.64
5651;BME280;40241;52.684;9.758;2024-01-27T12:21:22;103207.88;;;8.86;58.25
5651;BME280;40241;52.684;9.758;2024-01-27T12:23:56;103216.28;;;8.83;57.74
5651;BME280;40241;52.684;9.758;2024-01-27T12:26:22;103222.59;;;8.71;58.41
5651;BME280;40241;52.684;9.758;2024-01-27T12:28:48;103225.09;;;8.65;58.36
5651;BME280;40241;52.684;9.758;2024-01-27T12:31:15;103238.25;;;8.61;58.65
5651;BME280;40241;52.684;9.758;2024-01-27T12:33:53;103234.94;;;8.66;57.74
5651;BME280;40241;52.684;9.758;2024-01-27T12:36:19;103226.75;;;8.63;58.61
5651;BME280;40241;52.684;9.758;2024-01-27T12:38:58;103220.03;;;8.64;57.59
5651;BME280;40241;52.684;9.758;2024-01-27T12:41:25;103220.56;;;8.59;58.33
5651;BME280;40241;52.684;9.758;2024-01-27T12:43:51;103211.75;;;8.51;58.37
5651;BME280;40241;52.684;9.758;2024-01-27T12:46:16;103213.81;;;8.47;58.41
5651;BME280;40241;52.684;9.758;2024-01-27T12:48:42;103211.31;;;8.52;58.41
5651;BME280;40241;52.684;9.758;2024-01-27T12:51:08;103202.81;;;8.60;58.27
5651;BME280;40241;52.684;9.758;2024-01-27T12:53:34;103209.00;;;8.64;58.39
5651;BME280;40241;52.684;9.758;2024-01-27T12:55:59;103201.81;;;8.66;58.22
5651;BME280;40241;52.684;9.758;2024-01-27T12:58:25;103215.63;;;8.66;58.33
5651;BME280;40241;52.684;9.758;2024-01-27T13:00:50;103198.28;;;8.66;58.22
5651;BME280;40241;52.684;9.758;2024-01-27T13:03:15;103199.94;;;8.63;58.04
5651;BME280;40241;52.684;9.758;2024-01-27T13:05:41;103210.09;;;8.66;58.00